Home > Products > Valid Products > TAF

000
FTUS45 KVEF 310845 AAA
TAFLAS
TAF AMD
KLAS 310845Z 3109/0106 21009KT P6SM SCT250
     FM311400 VRB05KT P6SM SCT250
     FM311800 11007KT P6SM SCT250
     FM312200 19012G20KT P6SM SCT250
     FM010300 21009KT P6SM SCT250=



000
FTUS45 KVEF 310845 AAA
TAFLAS
TAF AMD
KLAS 310845Z 3109/0106 21009KT P6SM SCT250
     FM311400 VRB05KT P6SM SCT250
     FM311800 11007KT P6SM SCT250
     FM312200 19012G20KT P6SM SCT250
     FM010300 21009KT P6SM SCT250=



000
FTUS45 KVEF 310520
TAFDAG
TAF
KDAG 310520Z 3106/0106 27014KT P6SM SCT250
     FM311700 31007KT P6SM SCT250
     FM010300 27011KT P6SM SCT250=



000
FTUS45 KVEF 310520
TAFBIH
TAF
KBIH 310520Z 3106/0106 33006KT 6SM FU BKN050
     FM311000 33006KT P6SM FEW060 SCT250
     FM312000 16010G18KT 6SM FU SCT250
     FM010300 16009KT 6SM FU SCT050 SCT250=



000
FTUS45 KVEF 310520
TAFVGT
TAF
KVGT 310520Z 3106/0106 22009KT P6SM SCT250
     FM310800 VRB05KT P6SM SCT250
     FM311800 12007KT P6SM SCT250
     FM312200 18010G18KT P6SM SCT250
     FM010300 20009KT P6SM SCT250=



000
FTUS45 KVEF 310520
TAFLAS
TAF
KLAS 310520Z 3106/0106 21009KT P6SM SCT250
     FM311400 VRB05KT P6SM SCT250
     FM311800 11007KT P6SM SCT250
     FM312200 19012G20KT P6SM SCT250
     FM010300 21009KT P6SM SCT250=



000
FTUS45 KVEF 310520
TAFDAG
TAF
KDAG 310520Z 3106/0106 27014KT P6SM SCT250
     FM311700 31007KT P6SM SCT250
     FM010300 27011KT P6SM SCT250=



000
FTUS45 KVEF 310520
TAFLAS
TAF
KLAS 310520Z 3106/0106 21009KT P6SM SCT250
     FM311400 VRB05KT P6SM SCT250
     FM311800 11007KT P6SM SCT250
     FM312200 19012G20KT P6SM SCT250
     FM010300 21009KT P6SM SCT250=



000
FTUS45 KVEF 310520
TAFLAS
TAF
KLAS 310520Z 3106/0106 21009KT P6SM SCT250
     FM311400 VRB05KT P6SM SCT250
     FM311800 11007KT P6SM SCT250
     FM312200 19012G20KT P6SM SCT250
     FM010300 21009KT P6SM SCT250=



000
FTUS45 KVEF 310520
TAFEED
TAF
KEED 310520Z 3106/0106 24011KT P6SM SCT250
     FM311900 19010G18KT P6SM SCT250
     FM010300 20009KT P6SM SCT250=



000
FTUS45 KVEF 310520
TAFBIH
TAF
KBIH 310520Z 3106/0106 33006KT 6SM FU BKN050
     FM311000 33006KT P6SM FEW060 SCT250
     FM312000 16010G18KT 6SM FU SCT250
     FM010300 16009KT 6SM FU SCT050 SCT250=



000
FTUS45 KVEF 310520
TAFVGT
TAF
KVGT 310520Z 3106/0106 22009KT P6SM SCT250
     FM310800 VRB05KT P6SM SCT250
     FM311800 12007KT P6SM SCT250
     FM312200 18010G18KT P6SM SCT250
     FM010300 20009KT P6SM SCT250=



000
FTUS45 KVEF 310520
TAFLAS
TAF
KLAS 310520Z 3106/0106 21009KT P6SM SCT250
     FM311400 VRB05KT P6SM SCT250
     FM311800 11007KT P6SM SCT250
     FM312200 19012G20KT P6SM SCT250
     FM010300 21009KT P6SM SCT250=



000
FTUS45 KVEF 310520
TAFEED
TAF
KEED 310520Z 3106/0106 24011KT P6SM SCT250
     FM311900 19010G18KT P6SM SCT250
     FM010300 20009KT P6SM SCT250=



000
FTUS45 KVEF 310248 AAB
TAFLAS
TAF AMD
KLAS 310248Z 3103/3124 21009KT P6SM SCT250
     FM311800 11007KT P6SM SCT250
     FM312200 19012G20KT P6SM SCT250=



000
FTUS45 KVEF 310248 AAB
TAFLAS
TAF AMD
KLAS 310248Z 3103/3124 21009KT P6SM SCT250
     FM311800 11007KT P6SM SCT250
     FM312200 19012G20KT P6SM SCT250=



000
FTUS45 KVEF 310248 AAB
TAFLAS
TAF AMD
KLAS 310248Z 3103/3124 21009KT P6SM SCT250
     FM311800 11007KT P6SM SCT250
     FM312200 19012G20KT P6SM SCT250=



000
FTUS45 KVEF 310248 AAB
TAFLAS
TAF AMD
KLAS 310248Z 3103/3124 21009KT P6SM SCT250
     FM311800 11007KT P6SM SCT250
     FM312200 19012G20KT P6SM SCT250=



000
FTUS45 KVEF 310217 AAA
TAFEED
TAF AMD
KEED 310217Z 3102/3124 24011KT P6SM SCT250
     FM311900 19010G18KT P6SM SCT250=



000
FTUS45 KVEF 310216 AAA
TAFLAS
TAF AMD
KLAS 310216Z 3102/3124 22012KT P6SM SCT150 SCT250
     FM310300 21009KT P6SM SCT250
     FM311800 11007KT P6SM SCT250
     FM312200 19012G20KT P6SM SCT250=



000
FTUS45 KVEF 310216 AAA
TAFLAS
TAF AMD
KLAS 310216Z 3102/3124 22012KT P6SM SCT150 SCT250
     FM310300 21009KT P6SM SCT250
     FM311800 11007KT P6SM SCT250
     FM312200 19012G20KT P6SM SCT250=



000
FTUS45 KVEF 310116 AAA
TAFVGT
TAF AMD
KVGT 310116Z 3101/3124 24015KT P6SM SCT150 SCT250
     FM310300 22009KT P6SM SCT250
     FM311800 12007KT P6SM SCT250
     FM312200 18010G18KT P6SM SCT250=



000
FTUS45 KVEF 310003 AAA
TAFBIH
TAF AMD
KBIH 310003Z 3100/3124 16006KT 4SM FU FEW035 FEW140
     FM310600 33006KT 6SM FU SCT250
     FM312100 16010G18KT P6SM SCT250=



000
FTUS45 KVEF 310003 AAA
TAFBIH
TAF AMD
KBIH 310003Z 3100/3124 16006KT 4SM FU FEW035 FEW140
     FM310600 33006KT 6SM FU SCT250
     FM312100 16010G18KT P6SM SCT250=



000
FTUS45 KVEF 302320
TAFVGT
TAF
KVGT 302320Z 3100/3124 21015G23KT P6SM FEW120 SCT150 BKN250
     FM310300 22009KT P6SM SCT250
     FM311800 12007KT P6SM SCT250
     FM312200 18010G18KT P6SM SCT250=



000
FTUS45 KVEF 302320
TAFDAG
TAF
KDAG 302320Z 3100/3124 26015G25KT P6SM SCT250
     FM310300 25015KT P6SM SCT250
     FM311700 31007KT P6SM SCT250=



000
FTUS45 KVEF 302320
TAFLAS
TAF
KLAS 302320Z 3100/3124 22016G26KT P6SM FEW120 SCT150 BKN250
     FM310300 21009KT P6SM SCT250
     FM311800 11007KT P6SM SCT250
     FM312200 19012G20KT P6SM SCT250=



000
FTUS45 KVEF 302320
TAFLAS
TAF
KLAS 302320Z 3100/3124 22016G26KT P6SM FEW120 SCT150 BKN250
     FM310300 21009KT P6SM SCT250
     FM311800 11007KT P6SM SCT250
     FM312200 19012G20KT P6SM SCT250=



000
FTUS45 KVEF 302320
TAFEED
TAF
KEED 302320Z 3100/3124 24012G20KT P6SM SCT250
     FM310300 23009KT P6SM FEW250
     FM311900 19010G18KT P6SM SCT250=



000
FTUS45 KVEF 302320
TAFBIH
TAF
KBIH 302320Z 3100/3124 16006KT P6SM FEW140
     FM310600 33006KT 6SM FU SCT250
     FM312100 16010G18KT P6SM SCT250=



000
FTUS45 KVEF 302320
TAFVGT
TAF
KVGT 302320Z 3100/3124 21015G23KT P6SM FEW120 SCT150 BKN250
     FM310300 22009KT P6SM SCT250
     FM311800 12007KT P6SM SCT250
     FM312200 18010G18KT P6SM SCT250=



000
FTUS45 KVEF 302320
TAFBIH
TAF
KBIH 302320Z 3100/3124 16006KT P6SM FEW140
     FM310600 33006KT 6SM FU SCT250
     FM312100 16010G18KT P6SM SCT250=



000
FTUS45 KVEF 302320
TAFLAS
TAF
KLAS 302320Z 3100/3124 22016G26KT P6SM FEW120 SCT150 BKN250
     FM310300 21009KT P6SM SCT250
     FM311800 11007KT P6SM SCT250
     FM312200 19012G20KT P6SM SCT250=



000
FTUS45 KVEF 302320
TAFDAG
TAF
KDAG 302320Z 3100/3124 26015G25KT P6SM SCT250
     FM310300 25015KT P6SM SCT250
     FM311700 31007KT P6SM SCT250=



000
FTUS45 KVEF 302320
TAFEED
TAF
KEED 302320Z 3100/3124 24012G20KT P6SM SCT250
     FM310300 23009KT P6SM FEW250
     FM311900 19010G18KT P6SM SCT250=



000
FTUS45 KVEF 302104 AAA
TAFDAG
TAF AMD
KDAG 302104Z 3021/3118 29015G25KT P6SM SCT250
     FM310300 25015KT P6SM FEW250=



000
FTUS45 KVEF 302054 AAA
TAFLAS
TAF AMD
KLAS 302054Z 3021/3118 21016G24KT P6SM FEW120 SCT150 BKN250
     FM310300 23009KT P6SM SCT250=



000
FTUS45 KVEF 302054 AAA
TAFLAS
TAF AMD
KLAS 302054Z 3021/3118 21016G24KT P6SM FEW120 SCT150 BKN250
     FM310300 23009KT P6SM SCT250=



000
FTUS45 KVEF 302054 AAA
TAFLAS
TAF AMD
KLAS 302054Z 3021/3118 21016G24KT P6SM FEW120 SCT150 BKN250
     FM310300 23009KT P6SM SCT250=



000
FTUS45 KVEF 301733
TAFLAS
TAF
KLAS 301733Z 3018/3118 19011G19KT P6SM SCT150 BKN250
     FM302100 22016G24KT P6SM FEW150 SCT250
     FM310300 23009KT P6SM FEW250=



000
FTUS45 KVEF 301733
TAFVGT
TAF
KVGT 301733Z 3018/3118 19011G19KT P6SM SCT150 BKN250
     FM302100 21015G23KT P6SM FEW150 SCT250
     FM310300 22009KT P6SM FEW250=



000
FTUS45 KVEF 301733
TAFDAG
TAF
KDAG 301733Z 3018/3118 29012G20KT P6SM SCT250
     FM310300 25015KT P6SM FEW250=



000
FTUS45 KVEF 301733
TAFEED
TAF
KEED 301733Z 3018/3118 VRB06KT P6SM FEW250
     FM302000 20012G20KT P6SM FEW250
     FM310300 23012KT P6SM FEW250=



000
FTUS45 KVEF 301733
TAFBIH
TAF
KBIH 301733Z 3018/3118 VRB06KT P6SM SCT250
     FM302200 16009KT P6SM FEW250
     FM310800 33006KT P6SM FEW250=



000
FTUS45 KVEF 301733
TAFLAS
TAF
KLAS 301733Z 3018/3118 19011G19KT P6SM SCT150 BKN250
     FM302100 22016G24KT P6SM FEW150 SCT250
     FM310300 23009KT P6SM FEW250=



000
FTUS45 KVEF 301733
TAFEED
TAF
KEED 301733Z 3018/3118 VRB06KT P6SM FEW250
     FM302000 20012G20KT P6SM FEW250
     FM310300 23012KT P6SM FEW250=



000
FTUS45 KVEF 301733
TAFVGT
TAF
KVGT 301733Z 3018/3118 19011G19KT P6SM SCT150 BKN250
     FM302100 21015G23KT P6SM FEW150 SCT250
     FM310300 22009KT P6SM FEW250=



000
FTUS45 KVEF 301733
TAFLAS
TAF
KLAS 301733Z 3018/3118 19011G19KT P6SM SCT150 BKN250
     FM302100 22016G24KT P6SM FEW150 SCT250
     FM310300 23009KT P6SM FEW250=



000
FTUS45 KVEF 301733
TAFDAG
TAF
KDAG 301733Z 3018/3118 29012G20KT P6SM SCT250
     FM310300 25015KT P6SM FEW250=



000
FTUS45 KVEF 301733
TAFBIH
TAF
KBIH 301733Z 3018/3118 VRB06KT P6SM SCT250
     FM302200 16009KT P6SM FEW250
     FM310800 33006KT P6SM FEW250=



000
FTUS45 KVEF 301733
TAFLAS
TAF
KLAS 301733Z 3018/3118 19011G19KT P6SM SCT150 BKN250
     FM302100 22016G24KT P6SM FEW150 SCT250
     FM310300 23009KT P6SM FEW250=



000
FTUS45 KVEF 301446 AAA
TAFLAS
TAF AMD
KLAS 301446Z 3015/3112 18011KT P6SM SCT150 BKN250
     FM301800 22016G24KT P6SM FEW150 SCT250
     FM310300 23009KT P6SM FEW250=



000
FTUS45 KVEF 301446 AAA
TAFLAS
TAF AMD
KLAS 301446Z 3015/3112 18011KT P6SM SCT150 BKN250
     FM301800 22016G24KT P6SM FEW150 SCT250
     FM310300 23009KT P6SM FEW250=



000
FTUS45 KVEF 301446 AAA
TAFLAS
TAF AMD
KLAS 301446Z 3015/3112 18011KT P6SM SCT150 BKN250
     FM301800 22016G24KT P6SM FEW150 SCT250
     FM310300 23009KT P6SM FEW250=



000
FTUS45 KVEF 301120
TAFVGT
TAF
KVGT 301120Z 3012/3112 VRB06KT P6SM SCT250
     FM301800 23011G19KT P6SM SCT250
     FM310300 22009KT P6SM FEW250=



000
FTUS45 KVEF 301120
TAFLAS
TAF
KLAS 301120Z 3012/3112 20011KT P6SM FEW250
     FM301800 22016G24KT P6SM SCT250
     FM310300 23009KT P6SM FEW250=



000
FTUS45 KVEF 301120
TAFBIH
TAF
KBIH 301120Z 3012/3112 33007KT P6SM SCT250
     FM301600 VRB06KT P6SM SCT250
     FM302200 16009KT P6SM FEW250=



000
FTUS45 KVEF 301120
TAFLAS
TAF
KLAS 301120Z 3012/3112 20011KT P6SM FEW250
     FM301800 22016G24KT P6SM SCT250
     FM310300 23009KT P6SM FEW250=



000
FTUS45 KVEF 301120
TAFBIH
TAF
KBIH 301120Z 3012/3112 33007KT P6SM SCT250
     FM301600 VRB06KT P6SM SCT250
     FM302200 16009KT P6SM FEW250=



000
FTUS45 KVEF 301120
TAFDAG
TAF
KDAG 301120Z 3012/3112 26013KT P6SM FEW250
     FM301500 29012G20KT P6SM FEW250
     FM310300 25015KT P6SM FEW250=



000
FTUS45 KVEF 301120
TAFEED
TAF
KEED 301120Z 3012/3112 29007KT P6SM FEW250
     FM301400 VRB06KT P6SM FEW250
     FM302000 20012G20KT P6SM FEW250
     FM310300 23012KT P6SM FEW250=



000
FTUS45 KVEF 301120
TAFDAG
TAF
KDAG 301120Z 3012/3112 26013KT P6SM FEW250
     FM301500 29012G20KT P6SM FEW250
     FM310300 25015KT P6SM FEW250=



000
FTUS45 KVEF 301120
TAFLAS
TAF
KLAS 301120Z 3012/3112 20011KT P6SM FEW250
     FM301800 22016G24KT P6SM SCT250
     FM310300 23009KT P6SM FEW250=



000
FTUS45 KVEF 301120
TAFVGT
TAF
KVGT 301120Z 3012/3112 VRB06KT P6SM SCT250
     FM301800 23011G19KT P6SM SCT250
     FM310300 22009KT P6SM FEW250=



000
FTUS45 KVEF 301120
TAFEED
TAF
KEED 301120Z 3012/3112 29007KT P6SM FEW250
     FM301400 VRB06KT P6SM FEW250
     FM302000 20012G20KT P6SM FEW250
     FM310300 23012KT P6SM FEW250=



000
FTUS45 KVEF 300845 AAA
TAFLAS
TAF AMD
KLAS 300845Z 3009/3106 20009KT P6SM FEW250
     FM301800 22012G20KT P6SM SCT250
     FM310300 23009KT P6SM FEW250=



000
FTUS45 KVEF 300520
TAFEED
TAF
KEED 300520Z 3006/3106 26010KT P6SM SKC
     FM300800 29007KT P6SM FEW250
     FM301400 VRB06KT P6SM FEW250
     FM302000 20012G20KT P6SM FEW250
     FM310300 23012KT P6SM FEW250=



000
FTUS45 KVEF 300520
TAFLAS
TAF
KLAS 300520Z 3006/3106 20009KT P6SM FEW250
     FM301800 22012G20KT P6SM SCT250
     FM310300 23009KT P6SM FEW250=



000
FTUS45 KVEF 300520
TAFDAG
TAF
KDAG 300520Z 3006/3106 26013KT P6SM FEW250
     FM301500 29012G20KT P6SM FEW250
     FM310300 25015KT P6SM FEW250=



000
FTUS45 KVEF 300520
TAFBIH
TAF
KBIH 300520Z 3006/3106 01015G25KT 5SM FU SCT250
     FM300700 33007KT 5SM FU BKN070
     FM301600 VRB06KT P6SM SCT250
     FM302200 16009KT P6SM FEW250=



000
FTUS45 KVEF 300520
TAFEED
TAF
KEED 300520Z 3006/3106 26010KT P6SM SKC
     FM300800 29007KT P6SM FEW250
     FM301400 VRB06KT P6SM FEW250
     FM302000 20012G20KT P6SM FEW250
     FM310300 23012KT P6SM FEW250=



000
FTUS45 KVEF 300520
TAFLAS
TAF
KLAS 300520Z 3006/3106 20009KT P6SM FEW250
     FM301800 22012G20KT P6SM SCT250
     FM310300 23009KT P6SM FEW250=



000
FTUS45 KVEF 300520
TAFDAG
TAF
KDAG 300520Z 3006/3106 26013KT P6SM FEW250
     FM301500 29012G20KT P6SM FEW250
     FM310300 25015KT P6SM FEW250=



000
FTUS45 KVEF 300520
TAFLAS
TAF
KLAS 300520Z 3006/3106 20009KT P6SM FEW250
     FM301800 22012G20KT P6SM SCT250
     FM310300 23009KT P6SM FEW250=



000
FTUS45 KVEF 300520
TAFBIH
TAF
KBIH 300520Z 3006/3106 01015G25KT 5SM FU SCT250
     FM300700 33007KT 5SM FU BKN070
     FM301600 VRB06KT P6SM SCT250
     FM302200 16009KT P6SM FEW250=



000
FTUS45 KVEF 300520
TAFLAS
TAF
KLAS 300520Z 3006/3106 20009KT P6SM FEW250
     FM301800 22012G20KT P6SM SCT250
     FM310300 23009KT P6SM FEW250=



000
FTUS45 KVEF 300520
TAFVGT
TAF
KVGT 300520Z 3006/3106 25012KT P6SM FEW250
     FM301100 VRB06KT P6SM SCT250
     FM301800 23011G19KT P6SM SCT250
     FM310300 22009KT P6SM FEW250=



000
FTUS45 KVEF 300520
TAFVGT
TAF
KVGT 300520Z 3006/3106 25012KT P6SM FEW250
     FM301100 VRB06KT P6SM SCT250
     FM301800 23011G19KT P6SM SCT250
     FM310300 22009KT P6SM FEW250=



000
FTUS45 KVEF 300501 AAB
TAFLAS
TAF AMD
KLAS 300501Z 3005/3024 22007KT P6SM FEW250
     FM301800 22012G20KT P6SM FEW250=



000
FTUS45 KVEF 300501 AAB
TAFLAS
TAF AMD
KLAS 300501Z 3005/3024 22007KT P6SM FEW250
     FM301800 22012G20KT P6SM FEW250=



000
FTUS45 KVEF 300501 AAB
TAFLAS
TAF AMD
KLAS 300501Z 3005/3024 22007KT P6SM FEW250
     FM301800 22012G20KT P6SM FEW250=



000
FTUS45 KVEF 300501 AAB
TAFLAS
TAF AMD
KLAS 300501Z 3005/3024 22007KT P6SM FEW250
     FM301800 22012G20KT P6SM FEW250=



000
FTUS45 KVEF 300416 AAB
TAFBIH
TAF AMD
KBIH 300416Z 3004/3024 34015G25KT 5SM FU SCT250
     FM300700 33005KT 5SM FU BKN070
     FM301600 VRB06KT P6SM SCT250
     FM302200 16009KT P6SM FEW250=



000
FTUS45 KVEF 300416 AAB
TAFBIH
TAF AMD
KBIH 300416Z 3004/3024 34015G25KT 5SM FU SCT250
     FM300700 33005KT 5SM FU BKN070
     FM301600 VRB06KT P6SM SCT250
     FM302200 16009KT P6SM FEW250=



000
FTUS45 KVEF 300254 AAA
TAFBIH
TAF AMD
KBIH 300254Z 3003/3024 02015G25KT 5SM FU SCT250
      TEMPO 3003/3005 27010KT 3SM FU BKN060
     FM300500 33005KT 5SM FU BKN070
     FM301600 VRB06KT P6SM SCT250
     FM302200 16009KT P6SM FEW250=



000
FTUS45 KVEF 300254 AAA
TAFEED
TAF AMD
KEED 300254Z 3003/3024 26010KT P6SM SKC
     FM300800 29007KT P6SM SKC
     FM301400 VRB06KT P6SM FEW250
     FM302000 20012G20KT P6SM FEW250=



000
FTUS45 KVEF 300245 AAA
TAFLAS
TAF AMD
KLAS 300245Z 3003/3024 23012KT P6SM FEW250
     FM301100 20010KT P6SM SKC
     FM301800 22012G20KT P6SM FEW250=



000
FTUS45 KVEF 300245 AAA
TAFLAS
TAF AMD
KLAS 300245Z 3003/3024 23012KT P6SM FEW250
     FM301100 20010KT P6SM SKC
     FM301800 22012G20KT P6SM FEW250=



000
FTUS45 KVEF 300245 AAA
TAFLAS
TAF AMD
KLAS 300245Z 3003/3024 23012KT P6SM FEW250
     FM301100 20010KT P6SM SKC
     FM301800 22012G20KT P6SM FEW250=



000
FTUS45 KVEF 300245 AAA
TAFLAS
TAF AMD
KLAS 300245Z 3003/3024 23012KT P6SM FEW250
     FM301100 20010KT P6SM SKC
     FM301800 22012G20KT P6SM FEW250=



000
FTUS45 KVEF 292320
TAFVGT
TAF
KVGT 292320Z 3000/3024 23012G20KT P6SM FEW100 SCT250
     FM300300 25012KT P6SM FEW250
     FM301100 VRB06KT P6SM SKC
     FM301800 23011G19KT P6SM FEW250=



000
FTUS45 KVEF 292320
TAFEED
TAF
KEED 292320Z 3000/3024 20012G18KT P6SM FEW110
     FM300400 25010KT P6SM SKC
     FM300800 29007KT P6SM SKC
     FM301400 VRB06KT P6SM FEW250
     FM302000 20012G20KT P6SM FEW250=



000
FTUS45 KVEF 292320
TAFLAS
TAF
KLAS 292320Z 3000/3024 22013G22KT P6SM VCSH FEW120 SCT250
     FM300300 23012KT P6SM FEW250
     FM301100 20010KT P6SM SKC
     FM301800 22012G20KT P6SM FEW250=



000
FTUS45 KVEF 292320
TAFLAS
TAF
KLAS 292320Z 3000/3024 22013G22KT P6SM VCSH FEW120 SCT250
     FM300300 23012KT P6SM FEW250
     FM301100 20010KT P6SM SKC
     FM301800 22012G20KT P6SM FEW250=



000
FTUS45 KVEF 292320
TAFDAG
TAF
KDAG 292320Z 3000/3024 25015G23KT P6SM FEW140
     FM300500 26013KT P6SM SKC
     FM301500 29011G18KT P6SM FEW250=



000
FTUS45 KVEF 292320
TAFDAG
TAF
KDAG 292320Z 3000/3024 25015G23KT P6SM FEW140
     FM300500 26013KT P6SM SKC
     FM301500 29011G18KT P6SM FEW250=



000
FTUS45 KVEF 292320
TAFLAS
TAF
KLAS 292320Z 3000/3024 22013G22KT P6SM VCSH FEW120 SCT250
     FM300300 23012KT P6SM FEW250
     FM301100 20010KT P6SM SKC
     FM301800 22012G20KT P6SM FEW250=



000
FTUS45 KVEF 292320
TAFLAS
TAF
KLAS 292320Z 3000/3024 22013G22KT P6SM VCSH FEW120 SCT250
     FM300300 23012KT P6SM FEW250
     FM301100 20010KT P6SM SKC
     FM301800 22012G20KT P6SM FEW250=



000
FTUS45 KVEF 292320
TAFVGT
TAF
KVGT 292320Z 3000/3024 23012G20KT P6SM FEW100 SCT250
     FM300300 25012KT P6SM FEW250
     FM301100 VRB06KT P6SM SKC
     FM301800 23011G19KT P6SM FEW250=



000
FTUS45 KVEF 292320
TAFEED
TAF
KEED 292320Z 3000/3024 20012G18KT P6SM FEW110
     FM300400 25010KT P6SM SKC
     FM300800 29007KT P6SM SKC
     FM301400 VRB06KT P6SM FEW250
     FM302000 20012G20KT P6SM FEW250=



000
FTUS45 KVEF 292320
TAFBIH
TAF
KBIH 292320Z 3000/3024 25015G23KT 2SM FU BKN025 BKN035
     FM300300 02010KT 5SM FU SCT250
      TEMPO 3003/3005 27010KT 3SM FU SCT025 BKN035
     FM300500 33005KT 5SM FU BKN040
     FM301600 VRB06KT P6SM SCT250
     FM302200 16009KT P6SM FEW250=



000
FTUS45 KVEF 292320
TAFBIH
TAF
KBIH 292320Z 3000/3024 25015G23KT 2SM FU BKN025 BKN035
     FM300300 02010KT 5SM FU SCT250
      TEMPO 3003/3005 27010KT 3SM FU SCT025 BKN035
     FM300500 33005KT 5SM FU BKN040
     FM301600 VRB06KT P6SM SCT250
     FM302200 16009KT P6SM FEW250=



000
FTUS45 KVEF 292127 AAA
TAFBIH
TAF AMD
KBIH 292127Z 2921/3018 25015G23KT 5SM FU SCT025 BKN050
      TEMPO 2921/3001 1 1/2SM FU SCT020 BKN035
     FM300100 26010KT 5SM FU BKN040
     FM300500 33005KT 5SM FU BKN040
     FM301600 VRB06KT P6SM SCT250=



000
FTUS45 KVEF 292051 AAA
TAFLAS
TAF AMD
KLAS 292051Z 2921/3018 22013G22KT P6SM VCSH FEW100 SCT250
     FM300300 23012KT P6SM FEW250
     FM301100 20010KT P6SM FEW250=



000
FTUS45 KVEF 292051 AAA
TAFLAS
TAF AMD
KLAS 292051Z 2921/3018 22013G22KT P6SM VCSH FEW100 SCT250
     FM300300 23012KT P6SM FEW250
     FM301100 20010KT P6SM FEW250=



000
FTUS45 KVEF 292051 AAA
TAFLAS
TAF AMD
KLAS 292051Z 2921/3018 22013G22KT P6SM VCSH FEW100 SCT250
     FM300300 23012KT P6SM FEW250
     FM301100 20010KT P6SM FEW250=



000
FTUS45 KVEF 292051 AAA
TAFLAS
TAF AMD
KLAS 292051Z 2921/3018 22013G22KT P6SM VCSH FEW100 SCT250
     FM300300 23012KT P6SM FEW250
     FM301100 20010KT P6SM FEW250=



000
FTUS45 KVEF 291723
TAFLAS
TAF
KLAS 291723Z 2918/3018 16010KT P6SM SCT250
      TEMPO 2918/2920 15011G17KT
     FM292000 20013G22KT P6SM VCTS FEW100CB SCT250
      TEMPO 2920/2924 15015G25KT
     FM300300 23012KT P6SM FEW250
     FM301100 20010KT P6SM FEW250=



000
FTUS45 KVEF 291723
TAFLAS
TAF
KLAS 291723Z 2918/3018 16010KT P6SM SCT250
      TEMPO 2918/2920 15011G17KT
     FM292000 20013G22KT P6SM VCTS FEW100CB SCT250
      TEMPO 2920/2924 15015G25KT
     FM300300 23012KT P6SM FEW250
     FM301100 20010KT P6SM FEW250=



000
FTUS45 KVEF 291723
TAFDAG
TAF
KDAG 291723Z 2918/3018 30011KT P6SM FEW250
     FM292300 25014G24KT P6SM SCT250
     FM300500 26012KT P6SM SCT250=



000
FTUS45 KVEF 291723
TAFVGT
TAF
KVGT 291723Z 2918/3018 16007KT P6SM FEW250
     FM292000 20012G20KT P6SM FEW100 SCT250
     FM300300 25012KT P6SM FEW250
     FM301100 VRB06KT P6SM FEW250=



000
FTUS45 KVEF 291723
TAFEED
TAF
KEED 291723Z 2918/3018 18006KT P6SM SKC
     FM292000 20012G18KT P6SM FEW100 FEW250
     FM300500 25010KT P6SM FEW250
     FM300800 29007KT P6SM FEW250
     FM301400 VRB06KT P6SM FEW250=



000
FTUS45 KVEF 291723
TAFDAG
TAF
KDAG 291723Z 2918/3018 30011KT P6SM FEW250
     FM292300 25014G24KT P6SM SCT250
     FM300500 26012KT P6SM SCT250=



000
FTUS45 KVEF 291723
TAFVGT
TAF
KVGT 291723Z 2918/3018 16007KT P6SM FEW250
     FM292000 20012G20KT P6SM FEW100 SCT250
     FM300300 25012KT P6SM FEW250
     FM301100 VRB06KT P6SM FEW250=



000
FTUS45 KVEF 291723
TAFEED
TAF
KEED 291723Z 2918/3018 18006KT P6SM SKC
     FM292000 20012G18KT P6SM FEW100 FEW250
     FM300500 25010KT P6SM FEW250
     FM300800 29007KT P6SM FEW250
     FM301400 VRB06KT P6SM FEW250=



000
FTUS45 KVEF 291723
TAFBIH
TAF
KBIH 291723Z 2918/3018 16012G20KT P6SM BKN250
     FM292000 17016G25KT P6SM BKN250
     FM300100 26010KT 5SM FU BKN040
     FM300500 33005KT 5SM FU BKN040
     FM301600 VRB06KT P6SM SCT250=



000
FTUS45 KVEF 291723
TAFLAS
TAF
KLAS 291723Z 2918/3018 16010KT P6SM SCT250
      TEMPO 2918/2920 15011G17KT
     FM292000 20013G22KT P6SM VCTS FEW100CB SCT250
      TEMPO 2920/2924 15015G25KT
     FM300300 23012KT P6SM FEW250
     FM301100 20010KT P6SM FEW250=



000
FTUS45 KVEF 291723
TAFBIH
TAF
KBIH 291723Z 2918/3018 16012G20KT P6SM BKN250
     FM292000 17016G25KT P6SM BKN250
     FM300100 26010KT 5SM FU BKN040
     FM300500 33005KT 5SM FU BKN040
     FM301600 VRB06KT P6SM SCT250=



000
FTUS45 KVEF 291723
TAFLAS
TAF
KLAS 291723Z 2918/3018 16010KT P6SM SCT250
      TEMPO 2918/2920 15011G17KT
     FM292000 20013G22KT P6SM VCTS FEW100CB SCT250
      TEMPO 2920/2924 15015G25KT
     FM300300 23012KT P6SM FEW250
     FM301100 20010KT P6SM FEW250=



000
FTUS45 KVEF 291605 AAB
TAFLAS
TAF AMD
KLAS 291605Z 2916/3012 17010KT P6SM SCT250
     FM291900 20012G22KT P6SM FEW100 SCT250
     FM300300 20012KT P6SM FEW250=



000
FTUS45 KVEF 291605 AAB
TAFLAS
TAF AMD
KLAS 291605Z 2916/3012 17010KT P6SM SCT250
     FM291900 20012G22KT P6SM FEW100 SCT250
     FM300300 20012KT P6SM FEW250=



000
FTUS45 KVEF 291455 AAA
TAFLAS
TAF AMD
KLAS 291455Z 2915/3012 21005KT P6SM SCT250
      TEMPO 2917/2919 10006KT
     FM291900 20012G22KT P6SM FEW100 SCT250
     FM300300 20012KT P6SM FEW250=



000
FTUS45 KVEF 291455 AAA
TAFLAS
TAF AMD
KLAS 291455Z 2915/3012 21005KT P6SM SCT250
      TEMPO 2917/2919 10006KT
     FM291900 20012G22KT P6SM FEW100 SCT250
     FM300300 20012KT P6SM FEW250=



000
FTUS45 KVEF 291455 AAA
TAFLAS
TAF AMD
KLAS 291455Z 2915/3012 21005KT P6SM SCT250
      TEMPO 2917/2919 10006KT
     FM291900 20012G22KT P6SM FEW100 SCT250
     FM300300 20012KT P6SM FEW250=



000
FTUS45 KVEF 291455 AAA
TAFLAS
TAF AMD
KLAS 291455Z 2915/3012 21005KT P6SM SCT250
      TEMPO 2917/2919 10006KT
     FM291900 20012G22KT P6SM FEW100 SCT250
     FM300300 20012KT P6SM FEW250=



000
FTUS45 KVEF 291120
TAFBIH
TAF
KBIH 291120Z 2912/3012 34007KT P6SM BKN250
     FM291800 16012G20KT P6SM BKN250
     FM300100 26007KT 5SM FU BKN040=



000
FTUS45 KVEF 291120
TAFEED
TAF
KEED 291120Z 2912/3012 VRB04KT P6SM SKC
     FM292000 20010G18KT P6SM FEW100 FEW250
     FM300200 22010KT P6SM FEW250=



000
FTUS45 KVEF 291120
TAFLAS
TAF
KLAS 291120Z 2912/3012 21006KT P6SM SKC
     FM291600 18006KT P6SM FEW250
      TEMPO 2916/2919 10006KT P6SM FEW250
     FM292000 20012G22KT P6SM FEW100 SCT250
     FM300300 20012KT P6SM FEW250=



000
FTUS45 KVEF 291120
TAFVGT
TAF
KVGT 291120Z 2912/3012 32005KT P6SM SKC
     FM291600 15007KT P6SM FEW250
     FM292000 19012G20KT P6SM FEW100 SCT250
     FM300300 21012KT P6SM FEW250=



000
FTUS45 KVEF 291120
TAFLAS
TAF
KLAS 291120Z 2912/3012 21006KT P6SM SKC
     FM291600 18006KT P6SM FEW250
      TEMPO 2916/2919 10006KT P6SM FEW250
     FM292000 20012G22KT P6SM FEW100 SCT250
     FM300300 20012KT P6SM FEW250=



000
FTUS45 KVEF 291120
TAFLAS
TAF
KLAS 291120Z 2912/3012 21006KT P6SM SKC
     FM291600 18006KT P6SM FEW250
      TEMPO 2916/2919 10006KT P6SM FEW250
     FM292000 20012G22KT P6SM FEW100 SCT250
     FM300300 20012KT P6SM FEW250=



000
FTUS45 KVEF 291120
TAFDAG
TAF
KDAG 291120Z 2912/3012 24012KT P6SM FEW250
     FM291700 25014G24KT P6SM SCT250
     FM300500 26012KT P6SM SCT250=



000
FTUS45 KVEF 291120
TAFBIH
TAF
KBIH 291120Z 2912/3012 34007KT P6SM BKN250
     FM291800 16012G20KT P6SM BKN250
     FM300100 26007KT 5SM FU BKN040=



000
FTUS45 KVEF 291120
TAFVGT
TAF
KVGT 291120Z 2912/3012 32005KT P6SM SKC
     FM291600 15007KT P6SM FEW250
     FM292000 19012G20KT P6SM FEW100 SCT250
     FM300300 21012KT P6SM FEW250=



000
FTUS45 KVEF 291120
TAFDAG
TAF
KDAG 291120Z 2912/3012 24012KT P6SM FEW250
     FM291700 25014G24KT P6SM SCT250
     FM300500 26012KT P6SM SCT250=



000
FTUS45 KVEF 291120
TAFEED
TAF
KEED 291120Z 2912/3012 VRB04KT P6SM SKC
     FM292000 20010G18KT P6SM FEW100 FEW250
     FM300200 22010KT P6SM FEW250=



000
FTUS45 KVEF 291120
TAFLAS
TAF
KLAS 291120Z 2912/3012 21006KT P6SM SKC
     FM291600 18006KT P6SM FEW250
      TEMPO 2916/2919 10006KT P6SM FEW250
     FM292000 20012G22KT P6SM FEW100 SCT250
     FM300300 20012KT P6SM FEW250=



000
FTUS45 KVEF 290845 AAA
TAFLAS
TAF AMD
KLAS 290845Z 2909/3006 21006KT P6SM SCT250
     FM291600 18006KT P6SM SKC
      TEMPO 2916/2919 10006KT P6SM SKC
     FM292000 20012G22KT P6SM FEW100
     FM300300 20012KT P6SM SKC=



000
FTUS45 KVEF 290845 AAA
TAFLAS
TAF AMD
KLAS 290845Z 2909/3006 21006KT P6SM SCT250
     FM291600 18006KT P6SM SKC
      TEMPO 2916/2919 10006KT P6SM SKC
     FM292000 20012G22KT P6SM FEW100
     FM300300 20012KT P6SM SKC=



000
FTUS45 KVEF 290520
TAFDAG
TAF
KDAG 290520Z 2906/3006 24012KT P6SM FEW250
     FM291700 25014G24KT P6SM SCT250=



000
FTUS45 KVEF 290520
TAFEED
TAF
KEED 290520Z 2906/3006 25008KT P6SM SKC
     FM291100 VRB04KT P6SM SKC
     FM292000 20010G18KT P6SM FEW100
     FM300200 22010KT P6SM SKC=



000
FTUS45 KVEF 290520
TAFBIH
TAF
KBIH 290520Z 2906/3006 01010KT 5SM FU OVC040
     FM290800 34007KT P6SM SKC
     FM291800 16012G20KT P6SM SCT250
     FM300100 26007KT 5SM FU BKN040=



000
FTUS45 KVEF 290520
TAFLAS
TAF
KLAS 290520Z 2906/3006 21006KT P6SM SCT250
     FM291600 18006KT P6SM SKC
      TEMPO 2916/2919 10006KT P6SM SKC
     FM292000 20012G22KT P6SM FEW100
     FM300300 20012KT P6SM SKC=



000
FTUS45 KVEF 290520
TAFVGT
TAF
KVGT 290520Z 2906/3006 32005KT P6SM SCT250
     FM291600 15007KT P6SM SKC
     FM292000 19012G20KT P6SM FEW100
     FM300300 21012KT P6SM SKC=



000
FTUS45 KVEF 290520
TAFLAS
TAF
KLAS 290520Z 2906/3006 21006KT P6SM SCT250
     FM291600 18006KT P6SM SKC
      TEMPO 2916/2919 10006KT P6SM SKC
     FM292000 20012G22KT P6SM FEW100
     FM300300 20012KT P6SM SKC=



000
FTUS45 KVEF 290520
TAFLAS
TAF
KLAS 290520Z 2906/3006 21006KT P6SM SCT250
     FM291600 18006KT P6SM SKC
      TEMPO 2916/2919 10006KT P6SM SKC
     FM292000 20012G22KT P6SM FEW100
     FM300300 20012KT P6SM SKC=



000
FTUS45 KVEF 290520
TAFVGT
TAF
KVGT 290520Z 2906/3006 32005KT P6SM SCT250
     FM291600 15007KT P6SM SKC
     FM292000 19012G20KT P6SM FEW100
     FM300300 21012KT P6SM SKC=



000
FTUS45 KVEF 290520
TAFEED
TAF
KEED 290520Z 2906/3006 25008KT P6SM SKC
     FM291100 VRB04KT P6SM SKC
     FM292000 20010G18KT P6SM FEW100
     FM300200 22010KT P6SM SKC=



000
FTUS45 KVEF 290520
TAFDAG
TAF
KDAG 290520Z 2906/3006 24012KT P6SM FEW250
     FM291700 25014G24KT P6SM SCT250=



000
FTUS45 KVEF 290520
TAFLAS
TAF
KLAS 290520Z 2906/3006 21006KT P6SM SCT250
     FM291600 18006KT P6SM SKC
      TEMPO 2916/2919 10006KT P6SM SKC
     FM292000 20012G22KT P6SM FEW100
     FM300300 20012KT P6SM SKC=



000
FTUS45 KVEF 290520
TAFBIH
TAF
KBIH 290520Z 2906/3006 01010KT 5SM FU OVC040
     FM290800 34007KT P6SM SKC
     FM291800 16012G20KT P6SM SCT250
     FM300100 26007KT 5SM FU BKN040=



000
FTUS45 KVEF 290245 AAB
TAFLAS
TAF AMD
KLAS 290245Z 2903/2924 21006KT P6SM FEW120 SCT250
     FM291600 18006KT P6SM SKC=



000
FTUS45 KVEF 290245 AAB
TAFLAS
TAF AMD
KLAS 290245Z 2903/2924 21006KT P6SM FEW120 SCT250
     FM291600 18006KT P6SM SKC=



000
FTUS45 KVEF 290222 AAA
TAFBIH
TAF AMD
KBIH 290222Z 2902/2924 26007KT 2SM FU OVC040
      TEMPO 2902/2906 1SM FU OVC030
     FM290600 VRB04KT P6SM SCT250
     FM291800 16012G20KT P6SM SCT250=



000
FTUS45 KVEF 290222 AAA
TAFBIH
TAF AMD
KBIH 290222Z 2902/2924 26007KT 2SM FU OVC040
      TEMPO 2902/2906 1SM FU OVC030
     FM290600 VRB04KT P6SM SCT250
     FM291800 16012G20KT P6SM SCT250=



000
FTUS45 KVEF 290026 AAA
TAFLAS
TAF AMD
KLAS 290026Z 2900/2924 18010KT P6SM FEW100 SCT250
     FM290300 21007KT P6SM SCT250
     FM291600 18006KT P6SM SKC=



000
FTUS45 KVEF 290026 AAA
TAFLAS
TAF AMD
KLAS 290026Z 2900/2924 18010KT P6SM FEW100 SCT250
     FM290300 21007KT P6SM SCT250
     FM291600 18006KT P6SM SKC=



000
FTUS45 KVEF 290026 AAA
TAFLAS
TAF AMD
KLAS 290026Z 2900/2924 18010KT P6SM FEW100 SCT250
     FM290300 21007KT P6SM SCT250
     FM291600 18006KT P6SM SKC=



000
FTUS45 KVEF 290026 AAA
TAFLAS
TAF AMD
KLAS 290026Z 2900/2924 18010KT P6SM FEW100 SCT250
     FM290300 21007KT P6SM SCT250
     FM291600 18006KT P6SM SKC=



000
FTUS45 KVEF 282320
TAFLAS
TAF
KLAS 282320Z 2900/2924 06008KT P6SM FEW100 SCT250
     FM290300 21007KT P6SM SCT250
     FM291600 18006KT P6SM SKC=



000
FTUS45 KVEF 282320
TAFDAG
TAF
KDAG 282320Z 2900/2924 33006KT P6SM FEW120 SCT250
     FM290100 23012KT P6SM SCT250
     FM290600 26010KT P6SM SCT250
     FM291700 28012G20KT P6SM SCT250=



000
FTUS45 KVEF 282320
TAFEED
TAF
KEED 282320Z 2900/2924 VRB05KT P6SM FEW120 SCT200
     FM290200 23008KT P6SM SKC
     FM291100 VRB04KT P6SM SKC
     FM292000 20010G18KT P6SM FEW100=



000
FTUS45 KVEF 282320
TAFVGT
TAF
KVGT 282320Z 2900/2924 12007KT P6SM FEW100 SCT250
     FM290400 VRB05KT P6SM SCT250
     FM292000 19012G20KT P6SM FEW100=



000
FTUS45 KVEF 282320
TAFEED
TAF
KEED 282320Z 2900/2924 VRB05KT P6SM FEW120 SCT200
     FM290200 23008KT P6SM SKC
     FM291100 VRB04KT P6SM SKC
     FM292000 20010G18KT P6SM FEW100=



000
FTUS45 KVEF 282320
TAFBIH
TAF
KBIH 282320Z 2900/2924 15010G18KT P6SM FEW120 SCT250
     FM290400 VRB04KT P6SM SCT250
     FM291800 16012G20KT P6SM SCT250=



000
FTUS45 KVEF 282320
TAFLAS
TAF
KLAS 282320Z 2900/2924 06008KT P6SM FEW100 SCT250
     FM290300 21007KT P6SM SCT250
     FM291600 18006KT P6SM SKC=



000
FTUS45 KVEF 282320
TAFLAS
TAF
KLAS 282320Z 2900/2924 06008KT P6SM FEW100 SCT250
     FM290300 21007KT P6SM SCT250
     FM291600 18006KT P6SM SKC=



000
FTUS45 KVEF 282320
TAFDAG
TAF
KDAG 282320Z 2900/2924 33006KT P6SM FEW120 SCT250
     FM290100 23012KT P6SM SCT250
     FM290600 26010KT P6SM SCT250
     FM291700 28012G20KT P6SM SCT250=



000
FTUS45 KVEF 282320
TAFBIH
TAF
KBIH 282320Z 2900/2924 15010G18KT P6SM FEW120 SCT250
     FM290400 VRB04KT P6SM SCT250
     FM291800 16012G20KT P6SM SCT250=



000
FTUS45 KVEF 282320
TAFLAS
TAF
KLAS 282320Z 2900/2924 06008KT P6SM FEW100 SCT250
     FM290300 21007KT P6SM SCT250
     FM291600 18006KT P6SM SKC=



000
FTUS45 KVEF 282320
TAFVGT
TAF
KVGT 282320Z 2900/2924 12007KT P6SM FEW100 SCT250
     FM290400 VRB05KT P6SM SCT250
     FM292000 19012G20KT P6SM FEW100=



000
FTUS45 KVEF 282047 AAA
TAFLAS
TAF AMD
KLAS 282047Z 2821/2918 06007KT P6SM FEW100 SCT200
     FM282300 12007KT P6SM FEW100
     FM290300 21007KT P6SM FEW100
     FM291600 18006KT P6SM SKC=



000
FTUS45 KVEF 282047 AAA
TAFLAS
TAF AMD
KLAS 282047Z 2821/2918 06007KT P6SM FEW100 SCT200
     FM282300 12007KT P6SM FEW100
     FM290300 21007KT P6SM FEW100
     FM291600 18006KT P6SM SKC=



000
FTUS45 KVEF 282047 AAA
TAFLAS
TAF AMD
KLAS 282047Z 2821/2918 06007KT P6SM FEW100 SCT200
     FM282300 12007KT P6SM FEW100
     FM290300 21007KT P6SM FEW100
     FM291600 18006KT P6SM SKC=



000
FTUS45 KVEF 282047 AAA
TAFLAS
TAF AMD
KLAS 282047Z 2821/2918 06007KT P6SM FEW100 SCT200
     FM282300 12007KT P6SM FEW100
     FM290300 21007KT P6SM FEW100
     FM291600 18006KT P6SM SKC=



000
FTUS45 KVEF 281732
TAFDAG
TAF
KDAG 281732Z 2818/2918 30008KT P6SM FEW120
     FM281900 01007KT P6SM FEW120
     FM290100 23012KT P6SM SKC
     FM290600 26010KT P6SM SKC=



000
FTUS45 KVEF 281732
TAFEED
TAF
KEED 281732Z 2818/2918 VRB06KT P6SM FEW120
     FM282100 18007KT P6SM FEW120
     FM290200 23008KT P6SM SKC
     FM291100 VRB04KT P6SM SKC=



000
FTUS45 KVEF 281732
TAFBIH
TAF
KBIH 281732Z 2818/2918 VRB04KT P6SM FEW120
     FM281900 17016G22KT P6SM FEW120
     FM290200 17009KT P6SM SKC
     FM290400 VRB04KT P6SM SKC=



000
FTUS45 KVEF 281732
TAFLAS
TAF
KLAS 281732Z 2818/2918 06005KT P6SM FEW120
     FM282000 12007KT P6SM FEW100
     FM290300 21007KT P6SM FEW100
     FM291600 18006KT P6SM SKC=



000
FTUS45 KVEF 281732
TAFLAS
TAF
KLAS 281732Z 2818/2918 06005KT P6SM FEW120
     FM282000 12007KT P6SM FEW100
     FM290300 21007KT P6SM FEW100
     FM291600 18006KT P6SM SKC=



000
FTUS45 KVEF 281732
TAFVGT
TAF
KVGT 281732Z 2818/2918 VRB05KT P6SM FEW120
     FM282100 14007KT P6SM FEW100
     FM290400 VRB05KT P6SM FEW100=



000
FTUS45 KVEF 281732
TAFVGT
TAF
KVGT 281732Z 2818/2918 VRB05KT P6SM FEW120
     FM282100 14007KT P6SM FEW100
     FM290400 VRB05KT P6SM FEW100=



000
FTUS45 KVEF 281732
TAFBIH
TAF
KBIH 281732Z 2818/2918 VRB04KT P6SM FEW120
     FM281900 17016G22KT P6SM FEW120
     FM290200 17009KT P6SM SKC
     FM290400 VRB04KT P6SM SKC=



000
FTUS45 KVEF 281732
TAFEED
TAF
KEED 281732Z 2818/2918 VRB06KT P6SM FEW120
     FM282100 18007KT P6SM FEW120
     FM290200 23008KT P6SM SKC
     FM291100 VRB04KT P6SM SKC=



000
FTUS45 KVEF 281732
TAFDAG
TAF
KDAG 281732Z 2818/2918 30008KT P6SM FEW120
     FM281900 01007KT P6SM FEW120
     FM290100 23012KT P6SM SKC
     FM290600 26010KT P6SM SKC=



000
FTUS45 KVEF 281732
TAFLAS
TAF
KLAS 281732Z 2818/2918 06005KT P6SM FEW120
     FM282000 12007KT P6SM FEW100
     FM290300 21007KT P6SM FEW100
     FM291600 18006KT P6SM SKC=



000
FTUS45 KVEF 281438 AAA
TAFLAS
TAF AMD
KLAS 281438Z 2815/2912 VRB05KT P6SM FEW250
     FM282000 12007KT P6SM FEW100
     FM290300 21007KT P6SM FEW100
     FM290600 21006KT P6SM SKC=



000
FTUS45 KVEF 281120
TAFDAG
TAF
KDAG 281120Z 2812/2912 27008KT P6SM SKC
     FM281600 30008KT P6SM SKC
     FM281900 01007KT P6SM SKC
     FM282300 30007KT P6SM SKC
     FM290400 23015KT P6SM SKC
     FM290600 25008KT P6SM SKC=



000
FTUS45 KVEF 281120
TAFEED
TAF
KEED 281120Z 2812/2912 VRB04KT P6SM SKC
     FM281600 05006KT P6SM SKC
     FM282100 19007KT P6SM FEW120
     FM290200 23007KT P6SM SKC=



000
FTUS45 KVEF 281120
TAFVGT
TAF
KVGT 281120Z 2812/2912 VRB05KT P6SM SKC
     FM282100 14007KT P6SM FEW100
     FM290300 VRB04KT P6SM FEW100
     FM290600 32006KT P6SM SKC=



000
FTUS45 KVEF 281120
TAFLAS
TAF
KLAS 281120Z 2812/2912 22006KT P6SM SKC
     FM281500 VRB05KT P6SM SKC
     FM282000 12007KT P6SM FEW100
     FM290300 21007KT P6SM FEW100
     FM290600 21006KT P6SM SKC=



000
FTUS45 KVEF 281120
TAFEED
TAF
KEED 281120Z 2812/2912 VRB04KT P6SM SKC
     FM281600 05006KT P6SM SKC
     FM282100 19007KT P6SM FEW120
     FM290200 23007KT P6SM SKC=



000
FTUS45 KVEF 281120
TAFVGT
TAF
KVGT 281120Z 2812/2912 VRB05KT P6SM SKC
     FM282100 14007KT P6SM FEW100
     FM290300 VRB04KT P6SM FEW100
     FM290600 32006KT P6SM SKC=



000
FTUS45 KVEF 281120
TAFLAS
TAF
KLAS 281120Z 2812/2912 22006KT P6SM SKC
     FM281500 VRB05KT P6SM SKC
     FM282000 12007KT P6SM FEW100
     FM290300 21007KT P6SM FEW100
     FM290600 21006KT P6SM SKC=



000
FTUS45 KVEF 281120
TAFDAG
TAF
KDAG 281120Z 2812/2912 27008KT P6SM SKC
     FM281600 30008KT P6SM SKC
     FM281900 01007KT P6SM SKC
     FM282300 30007KT P6SM SKC
     FM290400 23015KT P6SM SKC
     FM290600 25008KT P6SM SKC=



000
FTUS45 KVEF 281120
TAFBIH
TAF
KBIH 281120Z 2812/2912 33006KT P6SM SKC
     FM281500 VRB04KT P6SM SKC
     FM281900 17016G22KT P6SM SKC
     FM290200 17009KT P6SM SKC
     FM290400 VRB04KT P6SM SKC=



000
FTUS45 KVEF 281120
TAFBIH
TAF
KBIH 281120Z 2812/2912 33006KT P6SM SKC
     FM281500 VRB04KT P6SM SKC
     FM281900 17016G22KT P6SM SKC
     FM290200 17009KT P6SM SKC
     FM290400 VRB04KT P6SM SKC=



000
FTUS45 KVEF 281120
TAFLAS
TAF
KLAS 281120Z 2812/2912 22006KT P6SM SKC
     FM281500 VRB05KT P6SM SKC
     FM282000 12007KT P6SM FEW100
     FM290300 21007KT P6SM FEW100
     FM290600 21006KT P6SM SKC=



000
FTUS45 KVEF 281120
TAFLAS
TAF
KLAS 281120Z 2812/2912 22006KT P6SM SKC
     FM281500 VRB05KT P6SM SKC
     FM282000 12007KT P6SM FEW100
     FM290300 21007KT P6SM FEW100
     FM290600 21006KT P6SM SKC=



    US Dept of Commerce
    National Oceanic and Atmospheric Administration
    National Weather Service
    1325 East West Highway
    Silver Spring, MD 20910
    Page Author: NWS Internet Services Team
Disclaimer
Information Quality
Credits
Glossary
Privacy Policy
Freedom of Information Act (FOIA)
About Us
Career Opportunities